EDT,Max TemperatureF,Mean TemperatureF,Min TemperatureF,Max Dew PointF,MeanDew PointF,Min DewpointF,Max Humidity, Mean Humidity, Min Humidity, Max Sea Level PressureIn, Mean Sea Level PressureIn, Min Sea Level PressureIn, Max VisibilityMiles, Mean VisibilityMiles, Min VisibilityMiles, Max Wind SpeedMPH, Mean Wind SpeedMPH, Max Gust SpeedMPH,PrecipitationIn, CloudCover, Events, WindDirDegrees
2013-8-1,82,73,62,70,64,61,100,79,51,29.93,29.90,29.87,10,8,2,15,6,18,0.00,3,Rain,296
2013-8-2,75,65,55,66,61,54,94,82,69,29.95,29.91,29.85,10,10,10,16,5,21,0.00,2,Rain,241
2013-8-3,80,70,60,68,61,54,100,73,42,30.03,29.97,29.91,10,8,0,13,3,20,0.00,3,Fog,320
2013-8-4,75,65,55,59,56,54,100,69,47,30.15,30.11,30.04,10,10,10,12,5,16,0.00,2,,358
2013-8-5,73,63,53,64,58,54,100,77,50,30.12,30.06,29.97,10,10,10,7,1,,0.00,3,Rain,191
2013-8-6,80,73,66,70,65,63,94,75,61,29.97,29.94,29.90,10,10,10,10,5,,0.00,6,Rain,174
2013-8-7,86,77,68,73,70,66,94,83,62,29.95,29.88,29.84,10,9,4,15,4,22,0.00,2,Rain,207
2013-8-8,78,74,69,73,68,63,100,83,69,30.00,29.95,29.90,10,9,2,10,4,18,0.00,6,,23
2013-8-9,82,72,62,64,61,55,88,68,45,30.01,29.97,29.94,10,10,10,9,3,,0.00,2,,303
2013-8-10,78,70,62,64,63,61,100,80,54,30.13,30.09,30.01,10,10,10,7,2,,0.00,3,,97
2013-8-11,82,70,57,66,61,55,100,75,51,30.12,30.09,30.03,10,10,10,8,2,,0.00,2,,211
2013-8-12,75,70,66,70,66,63,100,88,78,30.07,29.97,29.85,10,8,1,12,2,,0.00,6,Rain,188
2013-8-13,69,63,57,68,57,48,100,77,49,30.05,29.94,29.82,10,9,1,14,6,22,0.00,5,Rain,326
2013-8-14,71,60,50,57,52,48,100,74,50,30.16,30.12,30.05,10,10,7,12,5,16,0.00,1,,326
2013-8-15,75,62,50,59,53,46,100,73,38,30.18,30.14,30.10,10,10,7,8,1,9,0.00,1,,254
2013-8-16,78,66,55,59,56,54,94,70,42,30.20,30.16,30.12,10,10,10,8,1,,0.00,1,,171
2013-8-17,78,66,55,63,59,54,100,78,47,30.26,30.22,30.19,10,10,2,9,2,,0.00,0,,85
2013-8-18,80,70,60,70,62,57,100,79,47,30.21,30.17,30.12,10,8,0,9,2,,0.00,0,Fog,106
2013-8-19,84,70,57,68,62,57,100,77,45,30.13,30.09,30.04,10,8,0,7,1,,0.00,1,Fog,288
2013-8-20,86,73,60,70,66,61,100,78,51,30.16,30.11,30.07,10,8,0,9,2,,0.00,1,Fog,220
2013-8-21,87,76,64,72,68,63,100,74,49,30.15,30.09,30.01,10,9,1,9,3,9,0.00,1,,207
2013-8-22,84,78,71,72,70,68,100,84,66,30.05,30.02,29.97,10,9,5,12,5,,0.00,3,Rain,265
2013-8-23,82,72,62,70,62,52,100,71,35,30.20,30.11,30.04,10,9,4,7,4,,0.00,1,,18
2013-8-24,80,68,57,66,60,54,100,71,42,30.31,30.27,30.20,10,10,2,9,3,,0.00,0,,116
2013-8-25,87,72,57,66,63,55,100,72,43,30.31,30.25,30.16,10,9,0,13,3,17,0.00,0,Fog,231
2013-8-26,89,78,66,73,68,63,94,71,55,30.18,30.08,29.99,10,10,10,16,7,23,0.00,1,,247
2013-8-27,86,80,73,79,74,72,100,86,74,30.02,29.94,29.84,10,8,2,15,5,31,0.00,3,Rain,236
2013-8-28,84,78,71,77,74,70,100,85,70,29.99,29.88,29.80,10,9,3,13,6,18,0.00,5,Rain,315
2013-8-29,86,76,66,73,69,66,100,83,58,30.08,30.03,30.00,10,7,2,7,1,,0.00,1,,112
2013-8-30,87,76,64,73,69,64,100,79,55,30.01,29.90,29.76,10,6,0,15,3,23,0.00,3,Fog,223
2013-8-31,82,76,69,75,72,68,100,87,74,29.83,29.80,29.74,10,8,2,13,5,17,0.00,4,Rain,74